sensor_id;sensor_type;location;lat;lon;timestamp;P1;durP1;ratioP1;P2;durP2;ratioP2
5277;SDS011;2662;51.194;6.614;2023-04-12T00:02:12;6.20;;;1.60;;
5277;SDS011;2662;51.194;6.614;2023-04-12T00:04:38;4.87;;;1.43;;
5277;SDS011;2662;51.194;6.614;2023-04-12T00:07:06;6.53;;;1.37;;
5277;SDS011;2662;51.194;6.614;2023-04-12T00:09:34;7.93;;;1.20;;
5277;SDS011;2662;51.194;6.614;2023-04-12T00:12:02;7.00;;;1.50;;
5277;SDS011;2662;51.194;6.614;2023-04-12T00:14:30;5.10;;;1.50;;
5277;SDS011;2662;51.194;6.614;2023-04-12T00:16:58;6.53;;;1.20;;
5277;SDS011;2662;51.194;6.614;2023-04-12T00:19:25;6.07;;;1.50;;
5277;SDS011;2662;51.194;6.614;2023-04-12T00:21:55;4.93;;;2.07;;
5277;SDS011;2662;51.194;6.614;2023-04-12T00:24:21;4.67;;;2.27;;
5277;SDS011;2662;51.194;6.614;2023-04-12T00:26:48;1.77;;;1.20;;
5277;SDS011;2662;51.194;6.614;2023-04-12T00:29:15;7.13;;;2.00;;
5277;SDS011;2662;51.194;6.614;2023-04-12T00:31:42;6.70;;;1.53;;
5277;SDS011;2662;51.194;6.614;2023-04-12T00:34:10;6.23;;;2.10;;
5277;SDS011;2662;51.194;6.614;2023-04-12T00:36:36;4.90;;;1.90;;
5277;SDS011;2662;51.194;6.614;2023-04-12T00:39:03;11.57;;;1.90;;
5277;SDS011;2662;51.194;6.614;2023-04-12T00:41:30;5.73;;;1.97;;
5277;SDS011;2662;51.194;6.614;2023-04-12T00:43:56;12.03;;;1.70;;
5277;SDS011;2662;51.194;6.614;2023-04-12T00:46:23;10.10;;;2.13;;
5277;SDS011;2662;51.194;6.614;2023-04-12T00:48:50;6.53;;;2.10;;
5277;SDS011;2662;51.194;6.614;2023-04-12T00:51:18;5.23;;;1.90;;
5277;SDS011;2662;51.194;6.614;2023-04-12T00:53:46;11.90;;;2.57;;
5277;SDS011;2662;51.194;6.614;2023-04-12T00:56:13;4.37;;;1.43;;
5277;SDS011;2662;51.194;6.614;2023-04-12T00:58:40;4.63;;;1.90;;
5277;SDS011;2662;51.194;6.614;2023-04-12T01:01:06;4.50;;;1.67;;
5277;SDS011;2662;51.194;6.614;2023-04-12T01:03:34;10.30;;;1.93;;
5277;SDS011;2662;51.194;6.614;2023-04-12T01:06:08;8.03;;;2.00;;
5277;SDS011;2662;51.194;6.614;2023-04-12T01:08:42;8.20;;;2.43;;
5277;SDS011;2662;51.194;6.614;2023-04-12T01:11:22;6.50;;;2.00;;
5277;SDS011;2662;51.194;6.614;2023-04-12T01:13:57;5.53;;;1.90;;
5277;SDS011;2662;51.194;6.614;2023-04-12T01:16:30;5.20;;;1.70;;
5277;SDS011;2662;51.194;6.614;2023-04-12T01:19:04;9.67;;;2.00;;
5277;SDS011;2662;51.194;6.614;2023-04-12T01:21:50;3.90;;;1.33;;
5277;SDS011;2662;51.194;6.614;2023-04-12T01:24:31;5.37;;;1.47;;
5277;SDS011;2662;51.194;6.614;2023-04-12T01:27:06;2.87;;;1.53;;
5277;SDS011;2662;51.194;6.614;2023-04-12T01:29:43;3.77;;;1.50;;
5277;SDS011;2662;51.194;6.614;2023-04-12T01:32:14;4.90;;;1.30;;
5277;SDS011;2662;51.194;6.614;2023-04-12T01:34:42;3.83;;;1.30;;
5277;SDS011;2662;51.194;6.614;2023-04-12T01:37:09;4.97;;;1.40;;
5277;SDS011;2662;51.194;6.614;2023-04-12T01:39:37;2.70;;;1.43;;
5277;SDS011;2662;51.194;6.614;2023-04-12T01:42:04;4.83;;;1.60;;
5277;SDS011;2662;51.194;6.614;2023-04-12T01:44:32;7.53;;;2.27;;
5277;SDS011;2662;51.194;6.614;2023-04-12T01:46:59;5.53;;;2.00;;
5277;SDS011;2662;51.194;6.614;2023-04-12T01:49:26;6.80;;;1.90;;
5277;SDS011;2662;51.194;6.614;2023-04-12T01:51:57;4.10;;;1.53;;
5277;SDS011;2662;51.194;6.614;2023-04-12T01:54:29;6.53;;;2.03;;
5277;SDS011;2662;51.194;6.614;2023-04-12T01:57:02;6.40;;;1.90;;
5277;SDS011;2662;51.194;6.614;2023-04-12T01:59:30;5.87;;;1.40;;
5277;SDS011;2662;51.194;6.614;2023-04-12T02:02:04;8.23;;;1.90;;
5277;SDS011;2662;51.194;6.614;2023-04-12T02:04:32;5.33;;;1.70;;
5277;SDS011;2662;51.194;6.614;2023-04-12T02:06:59;3.03;;;1.47;;
5277;SDS011;2662;51.194;6.614;2023-04-12T02:09:26;4.40;;;1.23;;
5277;SDS011;2662;51.194;6.614;2023-04-12T02:11:53;3.13;;;1.40;;
5277;SDS011;2662;51.194;6.614;2023-04-12T02:14:20;3.57;;;1.53;;
5277;SDS011;2662;51.194;6.614;2023-04-12T02:16:48;7.40;;;1.60;;
5277;SDS011;2662;51.194;6.614;2023-04-12T02:19:19;2.70;;;1.30;;
5277;SDS011;2662;51.194;6.614;2023-04-12T02:21:46;4.20;;;1.40;;
5277;SDS011;2662;51.194;6.614;2023-04-12T02:24:13;3.43;;;1.40;;
5277;SDS011;2662;51.194;6.614;2023-04-12T02:26:40;2.60;;;1.20;;
5277;SDS011;2662;51.194;6.614;2023-04-12T02:29:08;2.37;;;1.40;;
5277;SDS011;2662;51.194;6.614;2023-04-12T02:31:35;3.53;;;1.60;;
5277;SDS011;2662;51.194;6.614;2023-04-12T02:34:04;1.70;;;1.17;;
5277;SDS011;2662;51.194;6.614;2023-04-12T02:36:31;2.00;;;1.27;;
5277;SDS011;2662;51.194;6.614;2023-04-12T02:38:59;3.80;;;1.43;;
5277;SDS011;2662;51.194;6.614;2023-04-12T02:41:25;4.77;;;1.93;;
5277;SDS011;2662;51.194;6.614;2023-04-12T02:43:52;4.40;;;1.30;;
5277;SDS011;2662;51.194;6.614;2023-04-12T02:46:21;3.03;;;1.30;;
5277;SDS011;2662;51.194;6.614;2023-04-12T02:48:49;7.50;;;1.40;;
5277;SDS011;2662;51.194;6.614;2023-04-12T02:51:17;4.27;;;1.40;;
5277;SDS011;2662;51.194;6.614;2023-04-12T02:53:44;2.33;;;1.40;;
5277;SDS011;2662;51.194;6.614;2023-04-12T02:56:10;5.47;;;1.30;;
5277;SDS011;2662;51.194;6.614;2023-04-12T02:58:37;3.77;;;2.10;;
5277;SDS011;2662;51.194;6.614;2023-04-12T03:01:05;2.87;;;1.10;;
5277;SDS011;2662;51.194;6.614;2023-04-12T03:03:32;3.60;;;1.40;;
5277;SDS011;2662;51.194;6.614;2023-04-12T03:06:00;1.97;;;1.10;;
5277;SDS011;2662;51.194;6.614;2023-04-12T03:08:28;8.43;;;1.50;;
5277;SDS011;2662;51.194;6.614;2023-04-12T03:10:55;3.13;;;1.20;;
5277;SDS011;2662;51.194;6.614;2023-04-12T03:13:22;7.13;;;1.03;;
5277;SDS011;2662;51.194;6.614;2023-04-12T03:15:53;9.37;;;1.57;;
5277;SDS011;2662;51.194;6.614;2023-04-12T03:18:21;11.03;;;2.07;;
5277;SDS011;2662;51.194;6.614;2023-04-12T03:20:49;6.60;;;1.87;;
5277;SDS011;2662;51.194;6.614;2023-04-12T03:23:16;2.57;;;1.40;;
5277;SDS011;2662;51.194;6.614;2023-04-12T03:25:44;3.10;;;1.70;;
5277;SDS011;2662;51.194;6.614;2023-04-12T03:28:11;2.00;;;1.30;;
5277;SDS011;2662;51.194;6.614;2023-04-12T03:30:38;1.70;;;1.40;;
5277;SDS011;2662;51.194;6.614;2023-04-12T03:33:04;5.43;;;1.57;;
5277;SDS011;2662;51.194;6.614;2023-04-12T03:35:31;1.40;;;1.30;;
5277;SDS011;2662;51.194;6.614;2023-04-12T03:37:58;2.40;;;1.30;;
5277;SDS011;2662;51.194;6.614;2023-04-12T03:40:24;2.60;;;1.33;;
5277;SDS011;2662;51.194;6.614;2023-04-12T03:42:52;1.47;;;1.20;;
5277;SDS011;2662;51.194;6.614;2023-04-12T03:45:19;5.13;;;1.23;;
5277;SDS011;2662;51.194;6.614;2023-04-12T03:47:46;1.83;;;1.23;;
5277;SDS011;2662;51.194;6.614;2023-04-12T03:50:12;4.03;;;1.17;;
5277;SDS011;2662;51.194;6.614;2023-04-12T03:52:39;4.27;;;1.50;;
5277;SDS011;2662;51.194;6.614;2023-04-12T03:55:06;1.73;;;1.47;;
5277;SDS011;2662;51.194;6.614;2023-04-12T03:57:33;2.73;;;1.10;;
5277;SDS011;2662;51.194;6.614;2023-04-12T04:00:02;10.17;;;1.53;;
5277;SDS011;2662;51.194;6.614;2023-04-12T04:02:30;2.47;;;1.10;;
5277;SDS011;2662;51.194;6.614;2023-04-12T04:04:57;3.57;;;1.00;;
5277;SDS011;2662;51.194;6.614;2023-04-12T04:07:24;1.07;;;0.97;;
5277;SDS011;2662;51.194;6.614;2023-04-12T04:09:51;3.10;;;1.13;;
5277;SDS011;2662;51.194;6.614;2023-04-12T04:12:19;3.87;;;1.23;;
5277;SDS011;2662;51.194;6.614;2023-04-12T04:14:45;5.13;;;1.53;;
5277;SDS011;2662;51.194;6.614;2023-04-12T04:17:13;2.20;;;1.00;;
5277;SDS011;2662;51.194;6.614;2023-04-12T04:19:40;2.20;;;1.20;;
5277;SDS011;2662;51.194;6.614;2023-04-12T04:22:07;3.57;;;1.40;;
5277;SDS011;2662;51.194;6.614;2023-04-12T04:24:34;4.67;;;1.80;;
5277;SDS011;2662;51.194;6.614;2023-04-12T04:27:03;4.83;;;1.47;;
5277;SDS011;2662;51.194;6.614;2023-04-12T04:29:30;1.67;;;1.40;;
5277;SDS011;2662;51.194;6.614;2023-04-12T04:31:57;2.27;;;1.30;;
5277;SDS011;2662;51.194;6.614;2023-04-12T04:34:25;7.40;;;1.70;;
5277;SDS011;2662;51.194;6.614;2023-04-12T04:36:52;3.17;;;1.30;;
5277;SDS011;2662;51.194;6.614;2023-04-12T04:39:19;6.00;;;1.63;;
5277;SDS011;2662;51.194;6.614;2023-04-12T04:41:46;5.10;;;1.60;;
5277;SDS011;2662;51.194;6.614;2023-04-12T04:44:18;2.63;;;1.80;;
5277;SDS011;2662;51.194;6.614;2023-04-12T04:46:45;1.63;;;1.47;;
5277;SDS011;2662;51.194;6.614;2023-04-12T04:49:13;2.07;;;1.40;;
5277;SDS011;2662;51.194;6.614;2023-04-12T04:51:41;6.23;;;1.60;;
5277;SDS011;2662;51.194;6.614;2023-04-12T04:54:08;3.60;;;1.80;;
5277;SDS011;2662;51.194;6.614;2023-04-12T04:56:34;3.73;;;1.73;;
5277;SDS011;2662;51.194;6.614;2023-04-12T04:59:01;6.00;;;2.10;;
5277;SDS011;2662;51.194;6.614;2023-04-12T05:01:28;8.20;;;1.97;;
5277;SDS011;2662;51.194;6.614;2023-04-12T05:03:55;5.70;;;1.90;;
5277;SDS011;2662;51.194;6.614;2023-04-12T05:06:22;6.40;;;2.30;;
5277;SDS011;2662;51.194;6.614;2023-04-12T05:08:51;4.40;;;2.10;;
5277;SDS011;2662;51.194;6.614;2023-04-12T05:11:17;3.77;;;1.90;;
5277;SDS011;2662;51.194;6.614;2023-04-12T05:13:44;4.60;;;2.27;;
5277;SDS011;2662;51.194;6.614;2023-04-12T05:16:11;7.03;;;1.90;;
5277;SDS011;2662;51.194;6.614;2023-04-12T05:18:38;2.43;;;2.03;;
5277;SDS011;2662;51.194;6.614;2023-04-12T05:21:05;9.67;;;2.10;;
5277;SDS011;2662;51.194;6.614;2023-04-12T05:26:01;6.67;;;2.50;;
5277;SDS011;2662;51.194;6.614;2023-04-12T05:28:28;6.80;;;2.40;;
5277;SDS011;2662;51.194;6.614;2023-04-12T05:30:55;5.20;;;3.00;;
5277;SDS011;2662;51.194;6.614;2023-04-12T05:33:22;4.67;;;2.50;;
5277;SDS011;2662;51.194;6.614;2023-04-12T05:35:48;5.10;;;2.70;;
5277;SDS011;2662;51.194;6.614;2023-04-12T05:38:15;15.20;;;2.93;;
5277;SDS011;2662;51.194;6.614;2023-04-12T05:40:42;6.83;;;2.40;;
5277;SDS011;2662;51.194;6.614;2023-04-12T05:43:10;6.93;;;2.50;;
5277;SDS011;2662;51.194;6.614;2023-04-12T05:45:37;4.60;;;2.30;;
5277;SDS011;2662;51.194;6.614;2023-04-12T05:48:04;6.67;;;2.97;;
5277;SDS011;2662;51.194;6.614;2023-04-12T05:50:31;6.83;;;3.00;;
5277;SDS011;2662;51.194;6.614;2023-04-12T05:52:59;2.40;;;2.10;;
5277;SDS011;2662;51.194;6.614;2023-04-12T05:55:26;9.93;;;2.30;;
5277;SDS011;2662;51.194;6.614;2023-04-12T05:57:53;3.47;;;2.43;;
5277;SDS011;2662;51.194;6.614;2023-04-12T06:00:21;4.30;;;2.37;;
5277;SDS011;2662;51.194;6.614;2023-04-12T06:02:48;4.37;;;2.67;;
5277;SDS011;2662;51.194;6.614;2023-04-12T06:05:16;4.40;;;2.70;;
5277;SDS011;2662;51.194;6.614;2023-04-12T06:07:43;4.17;;;2.50;;
5277;SDS011;2662;51.194;6.614;2023-04-12T06:10:11;3.00;;;2.20;;
5277;SDS011;2662;51.194;6.614;2023-04-12T06:12:39;4.70;;;2.50;;
5277;SDS011;2662;51.194;6.614;2023-04-12T06:15:06;6.13;;;2.90;;
5277;SDS011;2662;51.194;6.614;2023-04-12T06:17:34;2.73;;;2.53;;
5277;SDS011;2662;51.194;6.614;2023-04-12T06:20:01;3.73;;;3.13;;
5277;SDS011;2662;51.194;6.614;2023-04-12T06:22:32;8.93;;;3.40;;
5277;SDS011;2662;51.194;6.614;2023-04-12T06:24:58;4.37;;;2.80;;
5277;SDS011;2662;51.194;6.614;2023-04-12T06:27:25;4.73;;;3.50;;
5277;SDS011;2662;51.194;6.614;2023-04-12T06:29:52;4.87;;;3.60;;
5277;SDS011;2662;51.194;6.614;2023-04-12T06:32:19;4.40;;;3.00;;
5277;SDS011;2662;51.194;6.614;2023-04-12T06:34:47;4.37;;;2.90;;
5277;SDS011;2662;51.194;6.614;2023-04-12T06:37:13;5.03;;;3.20;;
5277;SDS011;2662;51.194;6.614;2023-04-12T06:39:40;21.10;;;3.80;;
5277;SDS011;2662;51.194;6.614;2023-04-12T06:42:07;4.40;;;3.00;;
5277;SDS011;2662;51.194;6.614;2023-04-12T06:44:34;4.80;;;3.57;;
5277;SDS011;2662;51.194;6.614;2023-04-12T06:47:00;7.03;;;3.23;;
5277;SDS011;2662;51.194;6.614;2023-04-12T06:49:27;9.20;;;3.50;;
5277;SDS011;2662;51.194;6.614;2023-04-12T06:51:55;3.63;;;3.30;;
5277;SDS011;2662;51.194;6.614;2023-04-12T06:54:22;5.53;;;3.00;;
5277;SDS011;2662;51.194;6.614;2023-04-12T06:56:49;3.83;;;3.27;;
5277;SDS011;2662;51.194;6.614;2023-04-12T06:59:15;4.90;;;3.47;;
5277;SDS011;2662;51.194;6.614;2023-04-12T07:01:42;10.00;;;3.23;;
5277;SDS011;2662;51.194;6.614;2023-04-12T07:04:09;4.77;;;3.20;;
5277;SDS011;2662;51.194;6.614;2023-04-12T07:06:36;5.73;;;3.17;;
5277;SDS011;2662;51.194;6.614;2023-04-12T07:09:04;4.93;;;2.90;;
5277;SDS011;2662;51.194;6.614;2023-04-12T07:11:31;5.70;;;3.17;;
5277;SDS011;2662;51.194;6.614;2023-04-12T07:13:58;3.93;;;3.40;;
5277;SDS011;2662;51.194;6.614;2023-04-12T07:16:24;7.30;;;2.93;;
5277;SDS011;2662;51.194;6.614;2023-04-12T07:18:51;3.70;;;3.40;;
5277;SDS011;2662;51.194;6.614;2023-04-12T07:21:18;3.40;;;2.80;;
5277;SDS011;2662;51.194;6.614;2023-04-12T07:23:45;5.70;;;3.10;;
5277;SDS011;2662;51.194;6.614;2023-04-12T07:26:16;4.90;;;3.20;;
5277;SDS011;2662;51.194;6.614;2023-04-12T07:28:43;3.90;;;2.60;;
5277;SDS011;2662;51.194;6.614;2023-04-12T07:31:10;3.27;;;2.87;;
5277;SDS011;2662;51.194;6.614;2023-04-12T07:33:37;6.20;;;3.30;;
5277;SDS011;2662;51.194;6.614;2023-04-12T07:36:04;3.10;;;2.90;;
5277;SDS011;2662;51.194;6.614;2023-04-12T07:38:31;6.20;;;3.43;;
5277;SDS011;2662;51.194;6.614;2023-04-12T07:40:58;4.07;;;3.67;;
5277;SDS011;2662;51.194;6.614;2023-04-12T07:43:26;6.40;;;3.43;;
5277;SDS011;2662;51.194;6.614;2023-04-12T07:45:53;4.40;;;3.10;;
5277;SDS011;2662;51.194;6.614;2023-04-12T07:48:20;3.80;;;2.93;;
5277;SDS011;2662;51.194;6.614;2023-04-12T07:50:46;5.20;;;2.67;;
5277;SDS011;2662;51.194;6.614;2023-04-12T07:53:16;3.87;;;2.90;;
5277;SDS011;2662;51.194;6.614;2023-04-12T07:55:44;3.77;;;2.70;;
5277;SDS011;2662;51.194;6.614;2023-04-12T07:58:11;5.53;;;3.00;;
5277;SDS011;2662;51.194;6.614;2023-04-12T08:00:39;4.17;;;2.70;;
5277;SDS011;2662;51.194;6.614;2023-04-12T08:03:06;2.23;;;2.13;;
5277;SDS011;2662;51.194;6.614;2023-04-12T08:05:33;4.10;;;2.40;;
5277;SDS011;2662;51.194;6.614;2023-04-12T08:08:00;2.27;;;2.07;;
5277;SDS011;2662;51.194;6.614;2023-04-12T08:10:26;3.50;;;2.20;;
5277;SDS011;2662;51.194;6.614;2023-04-12T08:12:54;5.70;;;2.80;;
5277;SDS011;2662;51.194;6.614;2023-04-12T08:15:20;7.70;;;2.63;;
5277;SDS011;2662;51.194;6.614;2023-04-12T08:17:49;4.67;;;2.70;;
5277;SDS011;2662;51.194;6.614;2023-04-12T08:20:15;2.50;;;2.30;;
5277;SDS011;2662;51.194;6.614;2023-04-12T08:22:42;3.27;;;2.83;;
5277;SDS011;2662;51.194;6.614;2023-04-12T08:25:10;2.97;;;2.73;;
5277;SDS011;2662;51.194;6.614;2023-04-12T08:27:37;5.00;;;2.77;;
5277;SDS011;2662;51.194;6.614;2023-04-12T08:30:05;2.93;;;2.63;;
5277;SDS011;2662;51.194;6.614;2023-04-12T08:32:33;4.30;;;2.90;;
5277;SDS011;2662;51.194;6.614;2023-04-12T08:35:02;3.37;;;2.40;;
5277;SDS011;2662;51.194;6.614;2023-04-12T08:37:29;3.37;;;2.57;;
5277;SDS011;2662;51.194;6.614;2023-04-12T08:39:57;3.67;;;2.73;;
5277;SDS011;2662;51.194;6.614;2023-04-12T08:42:24;3.57;;;2.70;;
5277;SDS011;2662;51.194;6.614;2023-04-12T08:44:51;3.40;;;3.10;;
5277;SDS011;2662;51.194;6.614;2023-04-12T08:47:18;4.43;;;2.57;;
5277;SDS011;2662;51.194;6.614;2023-04-12T08:49:46;2.50;;;2.30;;
5277;SDS011;2662;51.194;6.614;2023-04-12T08:52:14;3.67;;;2.73;;
5277;SDS011;2662;51.194;6.614;2023-04-12T08:54:41;3.93;;;2.70;;
5277;SDS011;2662;51.194;6.614;2023-04-12T08:57:08;4.13;;;2.80;;
5277;SDS011;2662;51.194;6.614;2023-04-12T08:59:36;4.43;;;2.77;;
5277;SDS011;2662;51.194;6.614;2023-04-12T09:02:04;4.93;;;3.13;;
5277;SDS011;2662;51.194;6.614;2023-04-12T09:04:31;5.40;;;3.00;;
5277;SDS011;2662;51.194;6.614;2023-04-12T09:06:57;2.30;;;2.20;;
5277;SDS011;2662;51.194;6.614;2023-04-12T09:09:41;2.70;;;2.50;;
5277;SDS011;2662;51.194;6.614;2023-04-12T09:12:09;3.07;;;2.63;;
5277;SDS011;2662;51.194;6.614;2023-04-12T09:14:36;3.97;;;3.00;;
5277;SDS011;2662;51.194;6.614;2023-04-12T09:17:04;3.80;;;3.03;;
5277;SDS011;2662;51.194;6.614;2023-04-12T09:19:31;5.13;;;2.97;;
5277;SDS011;2662;51.194;6.614;2023-04-12T09:21:58;2.90;;;2.70;;
5277;SDS011;2662;51.194;6.614;2023-04-12T09:24:25;4.60;;;3.20;;
5277;SDS011;2662;51.194;6.614;2023-04-12T09:27:01;5.83;;;3.03;;
5277;SDS011;2662;51.194;6.614;2023-04-12T09:29:28;4.13;;;2.80;;
5277;SDS011;2662;51.194;6.614;2023-04-12T09:31:58;5.43;;;2.73;;
5277;SDS011;2662;51.194;6.614;2023-04-12T09:34:26;1.80;;;1.70;;
5277;SDS011;2662;51.194;6.614;2023-04-12T09:36:53;2.47;;;1.60;;
5277;SDS011;2662;51.194;6.614;2023-04-12T09:39:29;1.63;;;1.27;;
5277;SDS011;2662;51.194;6.614;2023-04-12T09:42:04;1.60;;;1.13;;
5277;SDS011;2662;51.194;6.614;2023-04-12T09:44:31;1.10;;;1.00;;
5277;SDS011;2662;51.194;6.614;2023-04-12T09:46:58;1.53;;;1.20;;
5277;SDS011;2662;51.194;6.614;2023-04-12T09:49:35;1.53;;;0.80;;
5277;SDS011;2662;51.194;6.614;2023-04-12T09:52:04;0.87;;;0.87;;
5277;SDS011;2662;51.194;6.614;2023-04-12T09:54:31;0.77;;;0.77;;
5277;SDS011;2662;51.194;6.614;2023-04-12T09:57:06;1.07;;;0.97;;
5277;SDS011;2662;51.194;6.614;2023-04-12T09:59:35;0.67;;;0.67;;
5277;SDS011;2662;51.194;6.614;2023-04-12T10:02:04;0.63;;;0.63;;
5277;SDS011;2662;51.194;6.614;2023-04-12T10:04:34;1.73;;;0.60;;
5277;SDS011;2662;51.194;6.614;2023-04-12T10:07:02;0.60;;;0.60;;
5277;SDS011;2662;51.194;6.614;2023-04-12T10:09:29;0.70;;;0.60;;
5277;SDS011;2662;51.194;6.614;2023-04-12T10:11:56;3.70;;;1.00;;
5277;SDS011;2662;51.194;6.614;2023-04-12T10:14:27;0.60;;;0.60;;
5277;SDS011;2662;51.194;6.614;2023-04-12T10:16:54;2.90;;;0.90;;
5277;SDS011;2662;51.194;6.614;2023-04-12T10:19:23;1.10;;;0.90;;
5277;SDS011;2662;51.194;6.614;2023-04-12T10:21:51;1.57;;;1.10;;
5277;SDS011;2662;51.194;6.614;2023-04-12T10:24:19;0.80;;;0.80;;
5277;SDS011;2662;51.194;6.614;2023-04-12T10:26:47;1.43;;;1.30;;
5277;SDS011;2662;51.194;6.614;2023-04-12T10:29:21;1.53;;;1.10;;
5277;SDS011;2662;51.194;6.614;2023-04-12T10:31:51;1.87;;;1.77;;
5277;SDS011;2662;51.194;6.614;2023-04-12T10:34:22;1.70;;;1.60;;
5277;SDS011;2662;51.194;6.614;2023-04-12T10:36:50;1.70;;;1.57;;
5277;SDS011;2662;51.194;6.614;2023-04-12T10:39:19;3.83;;;1.80;;
5277;SDS011;2662;51.194;6.614;2023-04-12T10:42:17;3.13;;;1.87;;
5277;SDS011;2662;51.194;6.614;2023-04-12T10:44:48;6.00;;;1.97;;
5277;SDS011;2662;51.194;6.614;2023-04-12T10:50:21;4.00;;;2.00;;
5277;SDS011;2662;51.194;6.614;2023-04-12T10:55:49;5.60;;;2.10;;
5277;SDS011;2662;51.194;6.614;2023-04-12T11:01:20;3.67;;;1.60;;
5277;SDS011;2662;51.194;6.614;2023-04-12T11:06:52;2.00;;;1.77;;
5277;SDS011;2662;51.194;6.614;2023-04-12T11:09:24;3.53;;;1.70;;
5277;SDS011;2662;51.194;6.614;2023-04-12T11:11:56;5.23;;;1.57;;
5277;SDS011;2662;51.194;6.614;2023-04-12T11:14:36;2.33;;;1.50;;
5277;SDS011;2662;51.194;6.614;2023-04-12T11:17:18;2.10;;;1.30;;
5277;SDS011;2662;51.194;6.614;2023-04-12T11:19:48;5.77;;;1.83;;
5277;SDS011;2662;51.194;6.614;2023-04-12T11:22:18;1.73;;;1.50;;
5277;SDS011;2662;51.194;6.614;2023-04-12T11:24:47;3.37;;;2.07;;
5277;SDS011;2662;51.194;6.614;2023-04-12T11:27:15;2.47;;;1.90;;
5277;SDS011;2662;51.194;6.614;2023-04-12T11:29:42;2.80;;;1.43;;
5277;SDS011;2662;51.194;6.614;2023-04-12T11:32:10;5.00;;;1.77;;
5277;SDS011;2662;51.194;6.614;2023-04-12T11:34:38;3.90;;;1.83;;
5277;SDS011;2662;51.194;6.614;2023-04-12T11:37:06;4.73;;;1.90;;
5277;SDS011;2662;51.194;6.614;2023-04-12T11:39:37;5.57;;;2.00;;
5277;SDS011;2662;51.194;6.614;2023-04-12T11:42:05;3.60;;;1.93;;
5277;SDS011;2662;51.194;6.614;2023-04-12T11:44:33;4.93;;;2.10;;
5277;SDS011;2662;51.194;6.614;2023-04-12T11:47:01;3.87;;;1.80;;
5277;SDS011;2662;51.194;6.614;2023-04-12T11:49:29;2.53;;;1.80;;
5277;SDS011;2662;51.194;6.614;2023-04-12T11:52:02;5.07;;;1.87;;
5277;SDS011;2662;51.194;6.614;2023-04-12T11:54:29;6.03;;;1.63;;
5277;SDS011;2662;51.194;6.614;2023-04-12T11:56:59;4.47;;;2.13;;
5277;SDS011;2662;51.194;6.614;2023-04-12T11:59:30;4.10;;;1.77;;
5277;SDS011;2662;51.194;6.614;2023-04-12T12:01:57;2.30;;;1.80;;
5277;SDS011;2662;51.194;6.614;2023-04-12T12:04:25;7.50;;;2.50;;
5277;SDS011;2662;51.194;6.614;2023-04-12T12:06:52;6.77;;;1.93;;
5277;SDS011;2662;51.194;6.614;2023-04-12T12:09:21;5.20;;;2.00;;
5277;SDS011;2662;51.194;6.614;2023-04-12T12:11:47;7.93;;;2.60;;
5277;SDS011;2662;51.194;6.614;2023-04-12T12:14:18;5.33;;;2.53;;
5277;SDS011;2662;51.194;6.614;2023-04-12T12:16:51;6.37;;;3.13;;
5277;SDS011;2662;51.194;6.614;2023-04-12T12:19:25;9.20;;;2.03;;
5277;SDS011;2662;51.194;6.614;2023-04-12T12:21:53;12.17;;;2.43;;
5277;SDS011;2662;51.194;6.614;2023-04-12T12:24:21;8.47;;;2.50;;
5277;SDS011;2662;51.194;6.614;2023-04-12T12:26:48;6.27;;;2.37;;
5277;SDS011;2662;51.194;6.614;2023-04-12T12:29:15;6.37;;;2.20;;
5277;SDS011;2662;51.194;6.614;2023-04-12T12:31:45;10.13;;;2.70;;
5277;SDS011;2662;51.194;6.614;2023-04-12T12:34:13;7.77;;;2.27;;
5277;SDS011;2662;51.194;6.614;2023-04-12T12:36:43;6.67;;;2.03;;
5277;SDS011;2662;51.194;6.614;2023-04-12T12:39:19;10.23;;;2.17;;
5277;SDS011;2662;51.194;6.614;2023-04-12T12:41:51;8.20;;;1.90;;
5277;SDS011;2662;51.194;6.614;2023-04-12T12:44:21;5.50;;;2.20;;
5277;SDS011;2662;51.194;6.614;2023-04-12T12:46:47;7.60;;;2.10;;
5277;SDS011;2662;51.194;6.614;2023-04-12T12:49:14;4.90;;;2.20;;
5277;SDS011;2662;51.194;6.614;2023-04-12T12:51:41;5.57;;;2.37;;
5277;SDS011;2662;51.194;6.614;2023-04-12T12:54:08;6.80;;;1.90;;
5277;SDS011;2662;51.194;6.614;2023-04-12T12:56:35;10.17;;;2.40;;
5277;SDS011;2662;51.194;6.614;2023-04-12T12:59:01;11.13;;;2.37;;
5277;SDS011;2662;51.194;6.614;2023-04-12T13:01:29;7.80;;;2.27;;
5277;SDS011;2662;51.194;6.614;2023-04-12T13:03:56;12.50;;;2.50;;
5277;SDS011;2662;51.194;6.614;2023-04-12T13:06:23;15.60;;;3.20;;
5277;SDS011;2662;51.194;6.614;2023-04-12T13:08:51;8.10;;;2.13;;
5277;SDS011;2662;51.194;6.614;2023-04-12T13:11:18;10.70;;;2.00;;
5277;SDS011;2662;51.194;6.614;2023-04-12T13:13:46;12.97;;;2.03;;
5277;SDS011;2662;51.194;6.614;2023-04-12T13:16:13;6.13;;;1.77;;
5277;SDS011;2662;51.194;6.614;2023-04-12T13:18:42;10.50;;;2.10;;
5277;SDS011;2662;51.194;6.614;2023-04-12T13:21:08;13.23;;;2.00;;
5277;SDS011;2662;51.194;6.614;2023-04-12T13:23:35;6.33;;;1.83;;
5277;SDS011;2662;51.194;6.614;2023-04-12T13:26:02;22.07;;;2.37;;
5277;SDS011;2662;51.194;6.614;2023-04-12T13:28:29;5.10;;;1.50;;
5277;SDS011;2662;51.194;6.614;2023-04-12T13:30:56;7.87;;;2.00;;
5277;SDS011;2662;51.194;6.614;2023-04-12T13:33:22;5.87;;;1.63;;
5277;SDS011;2662;51.194;6.614;2023-04-12T13:35:50;12.97;;;1.80;;
5277;SDS011;2662;51.194;6.614;2023-04-12T13:38:17;20.97;;;2.00;;
5277;SDS011;2662;51.194;6.614;2023-04-12T13:40:44;9.23;;;1.67;;
5277;SDS011;2662;51.194;6.614;2023-04-12T13:43:10;8.50;;;1.80;;
5277;SDS011;2662;51.194;6.614;2023-04-12T13:45:37;4.53;;;1.60;;
5277;SDS011;2662;51.194;6.614;2023-04-12T13:48:04;6.63;;;1.50;;
5277;SDS011;2662;51.194;6.614;2023-04-12T13:50:31;6.33;;;1.43;;
5277;SDS011;2662;51.194;6.614;2023-04-12T13:52:59;4.17;;;0.70;;
5277;SDS011;2662;51.194;6.614;2023-04-12T13:55:25;2.10;;;1.00;;
5277;SDS011;2662;51.194;6.614;2023-04-12T13:57:52;1.33;;;0.80;;
5277;SDS011;2662;51.194;6.614;2023-04-12T14:00:19;5.07;;;1.10;;
5277;SDS011;2662;51.194;6.614;2023-04-12T14:02:46;6.30;;;0.93;;
5277;SDS011;2662;51.194;6.614;2023-04-12T14:05:13;7.83;;;1.13;;
5277;SDS011;2662;51.194;6.614;2023-04-12T14:07:39;5.77;;;1.20;;
5277;SDS011;2662;51.194;6.614;2023-04-12T14:10:08;2.00;;;0.80;;
5277;SDS011;2662;51.194;6.614;2023-04-12T14:12:35;2.30;;;1.00;;
5277;SDS011;2662;51.194;6.614;2023-04-12T14:15:02;4.13;;;1.03;;
5277;SDS011;2662;51.194;6.614;2023-04-12T14:17:30;4.40;;;1.20;;
5277;SDS011;2662;51.194;6.614;2023-04-12T14:19:57;1.63;;;1.30;;
5277;SDS011;2662;51.194;6.614;2023-04-12T14:22:24;3.60;;;1.20;;
5277;SDS011;2662;51.194;6.614;2023-04-12T14:24:51;2.70;;;1.20;;
5277;SDS011;2662;51.194;6.614;2023-04-12T14:27:19;14.33;;;1.70;;
5277;SDS011;2662;51.194;6.614;2023-04-12T14:29:46;7.07;;;1.33;;
5277;SDS011;2662;51.194;6.614;2023-04-12T14:32:13;3.97;;;1.37;;
5277;SDS011;2662;51.194;6.614;2023-04-12T14:34:40;7.10;;;1.70;;
5277;SDS011;2662;51.194;6.614;2023-04-12T14:37:08;2.53;;;1.03;;
5277;SDS011;2662;51.194;6.614;2023-04-12T14:39:35;6.73;;;1.07;;
5277;SDS011;2662;51.194;6.614;2023-04-12T14:42:01;1.00;;;0.80;;
5277;SDS011;2662;51.194;6.614;2023-04-12T14:44:30;3.70;;;0.90;;
5277;SDS011;2662;51.194;6.614;2023-04-12T14:46:56;2.80;;;1.27;;
5277;SDS011;2662;51.194;6.614;2023-04-12T14:49:23;9.10;;;1.50;;
5277;SDS011;2662;51.194;6.614;2023-04-12T14:51:50;3.10;;;1.30;;
5277;SDS011;2662;51.194;6.614;2023-04-12T14:54:17;7.73;;;1.07;;
5277;SDS011;2662;51.194;6.614;2023-04-12T14:56:43;4.30;;;1.40;;
5277;SDS011;2662;51.194;6.614;2023-04-12T14:59:11;6.37;;;1.50;;
5277;SDS011;2662;51.194;6.614;2023-04-12T15:01:39;1.27;;;0.80;;
5277;SDS011;2662;51.194;6.614;2023-04-12T15:04:06;3.27;;;1.40;;
5277;SDS011;2662;51.194;6.614;2023-04-12T15:06:33;1.70;;;0.80;;
5277;SDS011;2662;51.194;6.614;2023-04-12T15:09:06;2.50;;;0.60;;
5277;SDS011;2662;51.194;6.614;2023-04-12T15:11:33;1.23;;;0.80;;
5277;SDS011;2662;51.194;6.614;2023-04-12T15:14:00;0.83;;;0.77;;
5277;SDS011;2662;51.194;6.614;2023-04-12T15:16:28;0.97;;;0.63;;
5277;SDS011;2662;51.194;6.614;2023-04-12T15:18:56;1.47;;;0.60;;
5277;SDS011;2662;51.194;6.614;2023-04-12T15:21:22;1.93;;;1.03;;
5277;SDS011;2662;51.194;6.614;2023-04-12T15:23:49;1.03;;;0.73;;
5277;SDS011;2662;51.194;6.614;2023-04-12T15:26:16;0.50;;;0.50;;
5277;SDS011;2662;51.194;6.614;2023-04-12T15:28:43;2.20;;;0.60;;
5277;SDS011;2662;51.194;6.614;2023-04-12T15:31:10;2.30;;;0.60;;
5277;SDS011;2662;51.194;6.614;2023-04-12T15:33:37;2.00;;;0.70;;
5277;SDS011;2662;51.194;6.614;2023-04-12T15:36:06;2.93;;;0.80;;